sensor_id;sensor_type;location;lat;lon;timestamp;pressure;altitude;pressure_sealevel;temperature;humidity
70445;BME280;57902;49.638;11.070;2022-12-05T00:03:38;97967.25;;;5.20;100.00
70445;BME280;57902;49.638;11.070;2022-12-05T00:06:05;97959.59;;;5.17;100.00
70445;BME280;57902;49.638;11.070;2022-12-05T00:08:31;97957.03;;;5.18;100.00
70445;BME280;57902;49.638;11.070;2022-12-05T00:10:58;97950.22;;;5.19;100.00
70445;BME280;57902;49.638;11.070;2022-12-05T00:13:24;97957.84;;;5.22;100.00
70445;BME280;57902;49.638;11.070;2022-12-05T00:15:50;97968.09;;;5.20;100.00
70445;BME280;57902;49.638;11.070;2022-12-05T00:18:17;97973.16;;;5.22;100.00
70445;BME280;57902;49.638;11.070;2022-12-05T00:20:44;97985.13;;;5.21;100.00
70445;BME280;57902;49.638;11.070;2022-12-05T00:23:11;97985.91;;;5.25;100.00
70445;BME280;57902;49.638;11.070;2022-12-05T00:25:38;97976.50;;;5.25;100.00
70445;BME280;57902;49.638;11.070;2022-12-05T00:28:07;97980.03;;;5.20;100.00
70445;BME280;57902;49.638;11.070;2022-12-05T00:30:33;97975.81;;;5.16;100.00
70445;BME280;57902;49.638;11.070;2022-12-05T00:33:00;97972.38;;;5.15;100.00
70445;BME280;57902;49.638;11.070;2022-12-05T00:35:26;97978.41;;;5.13;100.00
70445;BME280;57902;49.638;11.070;2022-12-05T00:37:52;97981.78;;;5.15;100.00
70445;BME280;57902;49.638;11.070;2022-12-05T00:40:19;97991.25;;;5.08;100.00
70445;BME280;57902;49.638;11.070;2022-12-05T00:42:45;97997.22;;;5.07;100.00
70445;BME280;57902;49.638;11.070;2022-12-05T00:45:17;98005.66;;;5.12;100.00
70445;BME280;57902;49.638;11.070;2022-12-05T00:47:44;97998.03;;;5.07;100.00
70445;BME280;57902;49.638;11.070;2022-12-05T00:50:10;98007.50;;;5.02;100.00
70445;BME280;57902;49.638;11.070;2022-12-05T00:52:37;98007.50;;;5.02;100.00
70445;BME280;57902;49.638;11.070;2022-12-05T00:55:03;97999.84;;;5.01;100.00
70445;BME280;57902;49.638;11.070;2022-12-05T00:57:30;98005.81;;;4.98;100.00
70445;BME280;57902;49.638;11.070;2022-12-05T00:59:57;98007.53;;;4.96;100.00
70445;BME280;57902;49.638;11.070;2022-12-05T01:02:24;98008.44;;;4.94;100.00
70445;BME280;57902;49.638;11.070;2022-12-05T01:04:50;98011.84;;;4.93;100.00
70445;BME280;57902;49.638;11.070;2022-12-05T01:07:17;98019.50;;;4.94;100.00
70445;BME280;57902;49.638;11.070;2022-12-05T01:09:43;98024.59;;;4.96;100.00
70445;BME280;57902;49.638;11.070;2022-12-05T01:12:10;98026.31;;;4.95;100.00
70445;BME280;57902;49.638;11.070;2022-12-05T01:14:36;98025.44;;;4.95;100.00
70445;BME280;57902;49.638;11.070;2022-12-05T01:17:03;98025.41;;;4.96;100.00
70445;BME280;57902;49.638;11.070;2022-12-05T01:19:31;98023.72;;;4.97;100.00
70445;BME280;57902;49.638;11.070;2022-12-05T01:21:58;98033.09;;;4.95;100.00
70445;BME280;57902;49.638;11.070;2022-12-05T01:24:25;98035.66;;;4.95;100.00
70445;BME280;57902;49.638;11.070;2022-12-05T01:26:52;98040.78;;;4.93;100.00
70445;BME280;57902;49.638;11.070;2022-12-05T01:29:21;98038.22;;;4.93;100.00
70445;BME280;57902;49.638;11.070;2022-12-05T01:31:48;98048.41;;;4.96;100.00
70445;BME280;57902;49.638;11.070;2022-12-05T01:34:16;98041.66;;;4.94;100.00
70445;BME280;57902;49.638;11.070;2022-12-05T01:36:43;98053.53;;;4.95;100.00
70445;BME280;57902;49.638;11.070;2022-12-05T01:39:10;98051.88;;;4.92;100.00
70445;BME280;57902;49.638;11.070;2022-12-05T01:41:43;98053.56;;;4.91;100.00
70445;BME280;57902;49.638;11.070;2022-12-05T01:46:45;98057.81;;;4.94;100.00
70445;BME280;57902;49.638;11.070;2022-12-05T01:51:48;98053.53;;;4.95;100.00
70445;BME280;57902;49.638;11.070;2022-12-05T01:54:16;98068.03;;;4.94;100.00
70445;BME280;57902;49.638;11.070;2022-12-05T01:56:49;98059.53;;;4.92;100.00
70445;BME280;57902;49.638;11.070;2022-12-05T01:59:17;98062.91;;;4.94;100.00
70445;BME280;57902;49.638;11.070;2022-12-05T02:01:45;98065.50;;;4.91;100.00
70445;BME280;57902;49.638;11.070;2022-12-05T02:04:12;98066.31;;;4.93;100.00
70445;BME280;57902;49.638;11.070;2022-12-05T02:06:39;98078.28;;;4.91;100.00
70445;BME280;57902;49.638;11.070;2022-12-05T02:09:06;98083.38;;;4.91;100.00
70445;BME280;57902;49.638;11.070;2022-12-05T02:11:33;98079.13;;;4.90;100.00
70445;BME280;57902;49.638;11.070;2022-12-05T02:16:39;98088.50;;;4.91;100.00
70445;BME280;57902;49.638;11.070;2022-12-05T02:25:11;98079.09;;;4.93;100.00
70445;BME280;57902;49.638;11.070;2022-12-05T02:30:20;98087.69;;;4.89;100.00
70445;BME280;57902;49.638;11.070;2022-12-05T02:33:06;98085.13;;;4.87;100.00
70445;BME280;57902;49.638;11.070;2022-12-05T02:36:39;98098.75;;;4.86;100.00
70445;BME280;57902;49.638;11.070;2022-12-05T02:38:52;98097.94;;;4.83;100.00
70445;BME280;57902;49.638;11.070;2022-12-05T02:41:56;98097.91;;;4.87;100.00
70445;BME280;57902;49.638;11.070;2022-12-05T02:44:55;98102.13;;;4.88;100.00
70445;BME280;57902;49.638;11.070;2022-12-05T02:47:26;98101.28;;;4.89;100.00
70445;BME280;57902;49.638;11.070;2022-12-05T02:49:56;98109.84;;;4.85;100.00
70445;BME280;57902;49.638;11.070;2022-12-05T02:52:24;98107.28;;;4.84;100.00
70445;BME280;57902;49.638;11.070;2022-12-05T02:54:53;98110.72;;;4.81;100.00
70445;BME280;57902;49.638;11.070;2022-12-05T02:57:21;98114.13;;;4.82;100.00
70445;BME280;57902;49.638;11.070;2022-12-05T02:59:47;98114.06;;;4.88;100.00
70445;BME280;57902;49.638;11.070;2022-12-05T03:02:26;98122.59;;;4.85;100.00
70445;BME280;57902;49.638;11.070;2022-12-05T03:04:55;98119.22;;;4.85;100.00
70445;BME280;57902;49.638;11.070;2022-12-05T03:07:24;98120.88;;;4.86;100.00
70445;BME280;57902;49.638;11.070;2022-12-05T03:09:59;98129.44;;;4.83;100.00
70445;BME280;57902;49.638;11.070;2022-12-05T03:12:32;98124.34;;;4.83;100.00
70445;BME280;57902;49.638;11.070;2022-12-05T03:15:05;98122.66;;;4.81;100.00
70445;BME280;57902;49.638;11.070;2022-12-05T03:17:39;98131.09;;;4.86;100.00
70445;BME280;57902;49.638;11.070;2022-12-05T03:20:17;98131.09;;;4.86;100.00
70445;BME280;57902;49.638;11.070;2022-12-05T03:25:24;98145.56;;;4.87;100.00
70445;BME280;57902;49.638;11.070;2022-12-05T03:28:00;98149.00;;;4.84;100.00
70445;BME280;57902;49.638;11.070;2022-12-05T03:30:28;98148.28;;;4.70;100.00
70445;BME280;57902;49.638;11.070;2022-12-05T03:38:25;98150.06;;;4.59;100.00
70445;BME280;57902;49.638;11.070;2022-12-05T03:46:37;98143.34;;;4.47;100.00
70445;BME280;57902;49.638;11.070;2022-12-05T03:51:44;98134.84;;;4.45;100.00
70445;BME280;57902;49.638;11.070;2022-12-05T03:54:28;98135.75;;;4.41;100.00
70445;BME280;57902;49.638;11.070;2022-12-05T03:57:02;98122.97;;;4.37;100.00
70445;BME280;57902;49.638;11.070;2022-12-05T03:59:47;98140.88;;;4.33;100.00
70445;BME280;57902;49.638;11.070;2022-12-05T04:02:24;98153.69;;;4.27;100.00
70445;BME280;57902;49.638;11.070;2022-12-05T04:04:59;98158.81;;;4.25;100.00
70445;BME280;57902;49.638;11.070;2022-12-05T04:07:27;98158.81;;;4.24;100.00
70445;BME280;57902;49.638;11.070;2022-12-05T04:09:59;98165.59;;;4.28;100.00
70445;BME280;57902;49.638;11.070;2022-12-05T04:12:29;98163.88;;;4.28;100.00
70445;BME280;57902;49.638;11.070;2022-12-05T04:15:04;98167.31;;;4.24;100.00
70445;BME280;57902;49.638;11.070;2022-12-05T04:20:26;98197.91;;;4.30;100.00
70445;BME280;57902;49.638;11.070;2022-12-05T04:23:13;98193.66;;;4.29;100.00
70445;BME280;57902;49.638;11.070;2022-12-05T04:26:05;98198.81;;;4.22;100.00
70445;BME280;57902;49.638;11.070;2022-12-05T04:28:41;98209.03;;;4.18;100.00
70445;BME280;57902;49.638;11.070;2022-12-05T04:31:15;98208.16;;;4.21;100.00
70445;BME280;57902;49.638;11.070;2022-12-05T04:33:51;98212.41;;;4.20;100.00
70445;BME280;57902;49.638;11.070;2022-12-05T04:36:29;98216.69;;;4.20;100.00
70445;BME280;57902;49.638;11.070;2022-12-05T04:39:02;98215.00;;;4.16;100.00
70445;BME280;57902;49.638;11.070;2022-12-05T04:41:34;98214.13;;;4.15;100.00
70445;BME280;57902;49.638;11.070;2022-12-05T04:44:06;98220.94;;;4.18;100.00
70445;BME280;57902;49.638;11.070;2022-12-05T04:46:34;98223.47;;;4.18;100.00
70445;BME280;57902;49.638;11.070;2022-12-05T04:49:06;98220.09;;;4.16;100.00
70445;BME280;57902;49.638;11.070;2022-12-05T04:51:35;98227.78;;;4.11;100.00
70445;BME280;57902;49.638;11.070;2022-12-05T04:54:15;98232.03;;;4.09;100.00
70445;BME280;57902;49.638;11.070;2022-12-05T04:56:44;98232.91;;;4.03;100.00
70445;BME280;57902;49.638;11.070;2022-12-05T04:59:13;98238.88;;;4.02;100.00
70445;BME280;57902;49.638;11.070;2022-12-05T05:01:44;98236.31;;;4.06;100.00
70445;BME280;57902;49.638;11.070;2022-12-05T05:04:16;98232.03;;;4.08;100.00
70445;BME280;57902;49.638;11.070;2022-12-05T05:06:47;98238.84;;;4.09;100.00
70445;BME280;57902;49.638;11.070;2022-12-05T05:09:13;98245.66;;;4.03;100.00
70445;BME280;57902;49.638;11.070;2022-12-05T05:11:40;98239.69;;;4.06;100.00
70445;BME280;57902;49.638;11.070;2022-12-05T05:14:06;98243.97;;;4.04;100.00
70445;BME280;57902;49.638;11.070;2022-12-05T05:16:38;98246.53;;;4.01;100.00
70445;BME280;57902;49.638;11.070;2022-12-05T05:19:06;98250.75;;;4.03;100.00
70445;BME280;57902;49.638;11.070;2022-12-05T05:21:35;98246.53;;;4.01;100.00
70445;BME280;57902;49.638;11.070;2022-12-05T05:24:03;98245.66;;;4.03;100.00
70445;BME280;57902;49.638;11.070;2022-12-05T05:26:32;98245.66;;;4.02;100.00
70445;BME280;57902;49.638;11.070;2022-12-05T05:28:59;98243.97;;;4.02;100.00
70445;BME280;57902;49.638;11.070;2022-12-05T05:31:26;98243.94;;;4.09;100.00
70445;BME280;57902;49.638;11.070;2022-12-05T05:33:55;98258.41;;;4.05;100.00
70445;BME280;57902;49.638;11.070;2022-12-05T05:36:22;98258.41;;;4.03;100.00
70445;BME280;57902;49.638;11.070;2022-12-05T05:38:52;98263.53;;;3.99;100.00
70445;BME280;57902;49.638;11.070;2022-12-05T05:41:23;98268.66;;;3.93;100.00
70445;BME280;57902;49.638;11.070;2022-12-05T05:43:51;98260.16;;;3.95;100.00
70445;BME280;57902;49.638;11.070;2022-12-05T05:46:20;98266.94;;;3.95;100.00
70445;BME280;57902;49.638;11.070;2022-12-05T05:48:47;98267.81;;;3.92;100.00
70445;BME280;57902;49.638;11.070;2022-12-05T05:51:15;98265.25;;;3.92;100.00
70445;BME280;57902;49.638;11.070;2022-12-05T05:53:42;98262.72;;;3.89;100.00
70445;BME280;57902;49.638;11.070;2022-12-05T05:56:12;98268.66;;;3.90;100.00
70445;BME280;57902;49.638;11.070;2022-12-05T05:58:47;98269.50;;;3.87;100.00
70445;BME280;57902;49.638;11.070;2022-12-05T06:01:18;98271.22;;;3.85;100.00
70445;BME280;57902;49.638;11.070;2022-12-05T06:03:48;98275.44;;;3.88;100.00
70445;BME280;57902;49.638;11.070;2022-12-05T06:06:17;98284.81;;;3.87;100.00
70445;BME280;57902;49.638;11.070;2022-12-05T06:08:44;98284.81;;;3.87;100.00
70445;BME280;57902;49.638;11.070;2022-12-05T06:11:16;98284.00;;;3.83;100.00
70445;BME280;57902;49.638;11.070;2022-12-05T06:13:52;98286.53;;;3.82;100.00
70445;BME280;57902;49.638;11.070;2022-12-05T06:16:19;98279.72;;;3.84;100.00
70445;BME280;57902;49.638;11.070;2022-12-05T06:18:46;98286.53;;;3.82;100.00
70445;BME280;57902;49.638;11.070;2022-12-05T06:21:14;98283.16;;;3.77;100.00
70445;BME280;57902;49.638;11.070;2022-12-05T06:23:42;98291.63;;;3.76;100.00
70445;BME280;57902;49.638;11.070;2022-12-05T06:26:14;98295.91;;;3.75;100.00
70445;BME280;57902;49.638;11.070;2022-12-05T06:28:41;98295.03;;;3.78;100.00
70445;BME280;57902;49.638;11.070;2022-12-05T06:31:13;98293.34;;;3.75;100.00
70445;BME280;57902;49.638;11.070;2022-12-05T06:33:40;98298.44;;;3.74;100.00
70445;BME280;57902;49.638;11.070;2022-12-05T06:36:09;98309.50;;;3.66;100.00
70445;BME280;57902;49.638;11.070;2022-12-05T06:38:37;98297.63;;;3.61;100.00
70445;BME280;57902;49.638;11.070;2022-12-05T06:41:09;98309.50;;;3.63;100.00
70445;BME280;57902;49.638;11.070;2022-12-05T06:43:36;98306.97;;;3.60;100.00
70445;BME280;57902;49.638;11.070;2022-12-05T06:46:04;98312.91;;;3.61;100.00
70445;BME280;57902;49.638;11.070;2022-12-05T06:48:31;98326.53;;;3.60;100.00
70445;BME280;57902;49.638;11.070;2022-12-05T06:50:57;98320.53;;;3.65;100.00
70445;BME280;57902;49.638;11.070;2022-12-05T06:53:24;98317.16;;;3.66;100.00
70445;BME280;57902;49.638;11.070;2022-12-05T06:55:59;98320.53;;;3.67;100.00
70445;BME280;57902;49.638;11.070;2022-12-05T06:58:26;98325.66;;;3.65;100.00
70445;BME280;57902;49.638;11.070;2022-12-05T07:00:53;98329.06;;;3.63;100.00
70445;BME280;57902;49.638;11.070;2022-12-05T07:03:39;98334.19;;;3.58;100.00
70445;BME280;57902;49.638;11.070;2022-12-05T07:06:06;98336.69;;;3.57;100.00
70445;BME280;57902;49.638;11.070;2022-12-05T07:08:33;98332.47;;;3.53;100.00
70445;BME280;57902;49.638;11.070;2022-12-05T07:11:01;98343.50;;;3.53;100.00
70445;BME280;57902;49.638;11.070;2022-12-05T07:13:28;98347.75;;;3.48;100.00
70445;BME280;57902;49.638;11.070;2022-12-05T07:15:54;98349.44;;;3.47;100.00
70445;BME280;57902;49.638;11.070;2022-12-05T07:18:21;98342.69;;;3.49;100.00
70445;BME280;57902;49.638;11.070;2022-12-05T07:20:58;98352.88;;;3.54;100.00
70445;BME280;57902;49.638;11.070;2022-12-05T07:23:42;98351.16;;;3.53;100.00
70445;BME280;57902;49.638;11.070;2022-12-05T07:26:11;98352.00;;;3.49;100.00
70445;BME280;57902;49.638;11.070;2022-12-05T07:28:38;98346.06;;;3.53;100.00
70445;BME280;57902;49.638;11.070;2022-12-05T07:31:07;98342.66;;;3.48;100.00
70445;BME280;57902;49.638;11.070;2022-12-05T07:33:35;98350.31;;;3.49;100.00
70445;BME280;57902;49.638;11.070;2022-12-05T07:36:06;98350.28;;;3.46;100.00
70445;BME280;57902;49.638;11.070;2022-12-05T07:38:34;98366.47;;;3.47;100.00
70445;BME280;57902;49.638;11.070;2022-12-05T07:41:05;98373.22;;;3.42;100.00
70445;BME280;57902;49.638;11.070;2022-12-05T07:43:38;98369.84;;;3.40;100.00
70445;BME280;57902;49.638;11.070;2022-12-05T07:46:06;98378.34;;;3.39;100.00
70445;BME280;57902;49.638;11.070;2022-12-05T07:48:33;98379.16;;;3.36;100.00
70445;BME280;57902;49.638;11.070;2022-12-05T07:51:01;98374.94;;;3.33;100.00
70445;BME280;57902;49.638;11.070;2022-12-05T07:53:29;98380.88;;;3.31;100.00
70445;BME280;57902;49.638;11.070;2022-12-05T07:56:01;98377.50;;;3.30;100.00
70445;BME280;57902;49.638;11.070;2022-12-05T07:58:28;98378.34;;;3.34;100.00
70445;BME280;57902;49.638;11.070;2022-12-05T08:00:55;98388.53;;;3.36;100.00
70445;BME280;57902;49.638;11.070;2022-12-05T08:03:22;98391.91;;;3.35;100.00
70445;BME280;57902;49.638;11.070;2022-12-05T08:05:49;98399.56;;;3.35;100.00
70445;BME280;57902;49.638;11.070;2022-12-05T08:08:15;98398.72;;;3.37;100.00
70445;BME280;57902;49.638;11.070;2022-12-05T08:10:42;98405.53;;;3.37;100.00
70445;BME280;57902;49.638;11.070;2022-12-05T08:13:08;98410.63;;;3.40;100.00
70445;BME280;57902;49.638;11.070;2022-12-05T08:15:35;98410.63;;;3.37;100.00
70445;BME280;57902;49.638;11.070;2022-12-05T08:18:02;98414.84;;;3.36;100.00
70445;BME280;57902;49.638;11.070;2022-12-05T08:20:28;98408.06;;;3.40;100.00
70445;BME280;57902;49.638;11.070;2022-12-05T08:22:55;98406.38;;;3.40;100.00
70445;BME280;57902;49.638;11.070;2022-12-05T08:25:22;98408.91;;;3.45;100.00
70445;BME280;57902;49.638;11.070;2022-12-05T08:27:48;98408.94;;;3.49;100.00
70445;BME280;57902;49.638;11.070;2022-12-05T08:30:15;98402.13;;;3.47;100.00
70445;BME280;57902;49.638;11.070;2022-12-05T08:32:41;98408.94;;;3.54;100.00
70445;BME280;57902;49.638;11.070;2022-12-05T08:35:08;98421.69;;;3.60;100.00
70445;BME280;57902;49.638;11.070;2022-12-05T08:37:35;98413.19;;;3.60;100.00
70445;BME280;57902;49.638;11.070;2022-12-05T08:40:02;98423.41;;;3.61;100.00
70445;BME280;57902;49.638;11.070;2022-12-05T08:42:29;98431.03;;;3.64;100.00
70445;BME280;57902;49.638;11.070;2022-12-05T08:44:55;98436.13;;;3.64;100.00
70445;BME280;57902;49.638;11.070;2022-12-05T08:47:22;98439.53;;;3.65;100.00
70445;BME280;57902;49.638;11.070;2022-12-05T08:49:48;98449.72;;;3.63;100.00
70445;BME280;57902;49.638;11.070;2022-12-05T08:52:15;98443.78;;;3.67;100.00
70445;BME280;57902;49.638;11.070;2022-12-05T08:54:41;98449.72;;;3.70;100.00
70445;BME280;57902;49.638;11.070;2022-12-05T08:57:08;98451.44;;;3.67;100.00
70445;BME280;57902;49.638;11.070;2022-12-05T08:59:34;98448.88;;;3.72;100.00
70445;BME280;57902;49.638;11.070;2022-12-05T09:02:00;98456.53;;;3.71;100.00
70445;BME280;57902;49.638;11.070;2022-12-05T09:04:27;98456.53;;;3.71;100.00
70445;BME280;57902;49.638;11.070;2022-12-05T09:06:54;98459.91;;;3.68;100.00
70445;BME280;57902;49.638;11.070;2022-12-05T09:09:20;98463.34;;;3.68;100.00
70445;BME280;57902;49.638;11.070;2022-12-05T09:11:46;98459.91;;;3.68;100.00
70445;BME280;57902;49.638;11.070;2022-12-05T09:14:16;98460.78;;;3.75;100.00
70445;BME280;57902;49.638;11.070;2022-12-05T09:16:44;98475.22;;;3.76;100.00
70445;BME280;57902;49.638;11.070;2022-12-05T09:19:15;98471.00;;;3.72;100.00
70445;BME280;57902;49.638;11.070;2022-12-05T09:21:43;98482.88;;;3.74;100.00
70445;BME280;57902;49.638;11.070;2022-12-05T09:24:11;98483.72;;;3.84;100.00
70445;BME280;57902;49.638;11.070;2022-12-05T09:26:39;98489.72;;;3.89;100.00
70445;BME280;57902;49.638;11.070;2022-12-05T09:29:05;98493.09;;;3.83;100.00
70445;BME280;57902;49.638;11.070;2022-12-05T09:31:39;98496.50;;;3.78;100.00
70445;BME280;57902;49.638;11.070;2022-12-05T09:34:08;98490.50;;;3.74;100.00
70445;BME280;57902;49.638;11.070;2022-12-05T09:36:34;98488.00;;;3.79;100.00
70445;BME280;57902;49.638;11.070;2022-12-05T09:39:04;98493.09;;;3.82;100.00
70445;BME280;57902;49.638;11.070;2022-12-05T09:47:28;98488.84;;;3.90;100.00
70445;BME280;57902;49.638;11.070;2022-12-05T09:49:59;98492.25;;;3.91;100.00
70445;BME280;57902;49.638;11.070;2022-12-05T09:52:32;98487.13;;;3.83;100.00
70445;BME280;57902;49.638;11.070;2022-12-05T09:55:10;98493.09;;;3.87;100.00
70445;BME280;57902;49.638;11.070;2022-12-05T09:57:43;98494.78;;;3.84;100.00
70445;BME280;57902;49.638;11.070;2022-12-05T10:00:11;98500.75;;;3.79;100.00
70445;BME280;57902;49.638;11.070;2022-12-05T10:03:28;98499.88;;;3.75;100.00
70445;BME280;57902;49.638;11.070;2022-12-05T10:11:40;98494.78;;;3.74;100.00
70445;BME280;57902;49.638;11.070;2022-12-05T10:14:34;98496.50;;;3.72;100.00
70445;BME280;57902;49.638;11.070;2022-12-05T10:17:20;98494.78;;;3.71;100.00
70445;BME280;57902;49.638;11.070;2022-12-05T10:19:51;98485.41;;;3.73;100.00
70445;BME280;57902;49.638;11.070;2022-12-05T10:22:24;98494.78;;;3.75;100.00
70445;BME280;57902;49.638;11.070;2022-12-05T10:24:55;98488.84;;;3.75;100.00
70445;BME280;57902;49.638;11.070;2022-12-05T10:27:34;98490.50;;;3.70;100.00
70445;BME280;57902;49.638;11.070;2022-12-05T10:30:14;98495.63;;;3.70;100.00
70445;BME280;57902;49.638;11.070;2022-12-05T10:33:00;98496.50;;;3.70;100.00
70445;BME280;57902;49.638;11.070;2022-12-05T10:35:37;98493.06;;;3.70;100.00
70445;BME280;57902;49.638;11.070;2022-12-05T10:38:22;98488.84;;;3.76;100.00
70445;BME280;57902;49.638;11.070;2022-12-05T10:40:51;98488.00;;;3.79;100.00
70445;BME280;57902;49.638;11.070;2022-12-05T10:43:24;98485.44;;;3.79;100.00
70445;BME280;57902;49.638;11.070;2022-12-05T10:45:51;98482.91;;;3.82;100.00
70445;BME280;57902;49.638;11.070;2022-12-05T10:48:19;98486.28;;;3.90;100.00
70445;BME280;57902;49.638;11.070;2022-12-05T10:50:49;98487.16;;;3.95;100.00
70445;BME280;57902;49.638;11.070;2022-12-05T10:53:18;98491.41;;;3.99;100.00
70445;BME280;57902;49.638;11.070;2022-12-05T10:55:47;98493.94;;;3.96;100.00
70445;BME280;57902;49.638;11.070;2022-12-05T10:58:34;98489.69;;;3.97;100.00
70445;BME280;57902;49.638;11.070;2022-12-05T11:01:09;98485.44;;;3.94;100.00
70445;BME280;57902;49.638;11.070;2022-12-05T11:03:41;98488.00;;;3.96;100.00
70445;BME280;57902;49.638;11.070;2022-12-05T11:06:26;98485.44;;;4.00;100.00
70445;BME280;57902;49.638;11.070;2022-12-05T11:08:56;98479.50;;;4.01;100.00
70445;BME280;57902;49.638;11.070;2022-12-05T11:11:32;98476.94;;;4.03;100.00
70445;BME280;57902;49.638;11.070;2022-12-05T11:14:05;98481.19;;;4.01;100.00
70445;BME280;57902;49.638;11.070;2022-12-05T11:16:37;98478.66;;;3.98;100.00
70445;BME280;57902;49.638;11.070;2022-12-05T11:19:32;98487.16;;;4.01;100.00
70445;BME280;57902;49.638;11.070;2022-12-05T11:22:00;98483.75;;;4.02;100.00
70445;BME280;57902;49.638;11.070;2022-12-05T11:24:29;98487.97;;;4.03;100.00
70445;BME280;57902;49.638;11.070;2022-12-05T11:26:58;98487.13;;;4.05;100.00
70445;BME280;57902;49.638;11.070;2022-12-05T11:29:36;98483.75;;;4.01;100.00
70445;BME280;57902;49.638;11.070;2022-12-05T11:32:08;98480.34;;;3.97;100.00
70445;BME280;57902;49.638;11.070;2022-12-05T11:34:49;98481.19;;;3.99;100.00
70445;BME280;57902;49.638;11.070;2022-12-05T11:37:22;98476.94;;;3.98;100.00
70445;BME280;57902;49.638;11.070;2022-12-05T11:39:51;98479.50;;;3.94;100.00
70445;BME280;57902;49.638;11.070;2022-12-05T11:42:27;98478.63;;;3.95;100.00
70445;BME280;57902;49.638;11.070;2022-12-05T11:50:32;98454.81;;;4.05;100.00
70445;BME280;57902;49.638;11.070;2022-12-05T11:55:45;98465.03;;;4.05;100.00
70445;BME280;57902;49.638;11.070;2022-12-05T11:58:33;98461.63;;;4.05;100.00
70445;BME280;57902;49.638;11.070;2022-12-05T12:16:41;98454.81;;;4.07;100.00
70445;BME280;57902;49.638;11.070;2022-12-05T12:27:12;98440.38;;;4.13;100.00
70445;BME280;57902;49.638;11.070;2022-12-05T12:29:58;98437.81;;;4.15;100.00
70445;BME280;57902;49.638;11.070;2022-12-05T12:35:26;98438.66;;;4.17;100.00
70445;BME280;57902;49.638;11.070;2022-12-05T12:44:06;98438.66;;;4.26;100.00
70445;BME280;57902;49.638;11.070;2022-12-05T12:52:28;98441.19;;;4.32;100.00
70445;BME280;57902;49.638;11.070;2022-12-05T12:55:13;98444.59;;;4.42;100.00
70445;BME280;57902;49.638;11.070;2022-12-05T13:03:15;98447.13;;;4.33;100.00
70445;BME280;57902;49.638;11.070;2022-12-05T13:05:52;98448.81;;;4.38;100.00
70445;BME280;57902;49.638;11.070;2022-12-05T13:08:32;98442.91;;;4.33;100.00
70445;BME280;57902;49.638;11.070;2022-12-05T13:11:03;98442.03;;;4.30;100.00
70445;BME280;57902;49.638;11.070;2022-12-05T13:13:34;98447.13;;;4.33;100.00
70445;BME280;57902;49.638;11.070;2022-12-05T13:16:04;98447.13;;;4.28;100.00
70445;BME280;57902;49.638;11.070;2022-12-05T13:18:34;98451.41;;;4.32;100.00
70445;BME280;57902;49.638;11.070;2022-12-05T13:21:07;98449.69;;;4.27;100.00
70445;BME280;57902;49.638;11.070;2022-12-05T13:23:48;98444.59;;;4.22;100.00
70445;BME280;57902;49.638;11.070;2022-12-05T13:26:18;98445.44;;;4.26;100.00
70445;BME280;57902;49.638;11.070;2022-12-05T13:31:14;98439.50;;;4.25;100.00
70445;BME280;57902;49.638;11.070;2022-12-05T13:33:48;98439.47;;;4.28;100.00
70445;BME280;57902;49.638;11.070;2022-12-05T13:36:18;98442.88;;;4.27;100.00
70445;BME280;57902;49.638;11.070;2022-12-05T13:39:06;98439.50;;;4.27;100.00
70445;BME280;57902;49.638;11.070;2022-12-05T13:41:59;98444.59;;;4.25;100.00
70445;BME280;57902;49.638;11.070;2022-12-05T13:44:44;98449.69;;;4.25;100.00
70445;BME280;57902;49.638;11.070;2022-12-05T13:52:53;98456.50;;;4.28;100.00
70445;BME280;57902;49.638;11.070;2022-12-05T13:55:27;98450.53;;;4.27;100.00
70445;BME280;57902;49.638;11.070;2022-12-05T13:58:03;98449.69;;;4.28;100.00
70445;BME280;57902;49.638;11.070;2022-12-05T14:09:30;98447.97;;;4.40;100.00
70445;BME280;57902;49.638;11.070;2022-12-05T14:17:30;98454.75;;;4.50;100.00
70445;BME280;57902;49.638;11.070;2022-12-05T14:28:44;98451.31;;;4.63;100.00
70445;BME280;57902;49.638;11.070;2022-12-05T14:31:26;98451.34;;;4.57;100.00
70445;BME280;57902;49.638;11.070;2022-12-05T14:36:54;98446.25;;;4.51;100.00
70445;BME280;57902;49.638;11.070;2022-12-05T14:39:30;98454.75;;;4.51;100.00
70445;BME280;57902;49.638;11.070;2022-12-05T14:41:59;98454.78;;;4.45;100.00
70445;BME280;57902;49.638;11.070;2022-12-05T14:44:27;98453.91;;;4.46;100.00
70445;BME280;57902;49.638;11.070;2022-12-05T14:47:02;98457.31;;;4.47;100.00
70445;BME280;57902;49.638;11.070;2022-12-05T14:49:51;98448.78;;;4.46;100.00
70445;BME280;57902;49.638;11.070;2022-12-05T14:52:23;98452.22;;;4.47;100.00
70445;BME280;57902;49.638;11.070;2022-12-05T14:55:19;98459.88;;;4.47;100.00
70445;BME280;57902;49.638;11.070;2022-12-05T14:57:52;98442.88;;;4.43;100.00
70445;BME280;57902;49.638;11.070;2022-12-05T15:00:21;98443.69;;;4.43;100.00
70445;BME280;57902;49.638;11.070;2022-12-05T15:02:50;98447.13;;;4.41;100.00
70445;BME280;57902;49.638;11.070;2022-12-05T15:05:30;98447.97;;;4.43;100.00
70445;BME280;57902;49.638;11.070;2022-12-05T15:07:57;98443.72;;;4.42;100.00
70445;BME280;57902;49.638;11.070;2022-12-05T15:10:32;98445.41;;;4.41;100.00
70445;BME280;57902;49.638;11.070;2022-12-05T15:13:04;98446.28;;;4.37;100.00
70445;BME280;57902;49.638;11.070;2022-12-05T15:15:42;98449.66;;;4.37;100.00
70445;BME280;57902;49.638;11.070;2022-12-05T15:18:20;98449.69;;;4.41;100.00
70445;BME280;57902;49.638;11.070;2022-12-05T15:21:01;98450.53;;;4.41;100.00
70445;BME280;57902;49.638;11.070;2022-12-05T15:23:43;98448.81;;;4.37;100.00
70445;BME280;57902;49.638;11.070;2022-12-05T15:26:22;98448.00;;;4.33;100.00
70445;BME280;57902;49.638;11.070;2022-12-05T15:31:49;98453.94;;;4.37;100.00